createdAt,value
2023-02-20T00:00:28.414Z,9.53
2023-02-20T00:02:55.706Z,8.50
2023-02-20T00:05:23.040Z,5.70
2023-02-20T00:07:50.157Z,8.93
2023-02-20T00:10:17.857Z,5.10
2023-02-20T00:12:44.941Z,12.50
2023-02-20T00:15:15.205Z,8.30
2023-02-20T00:17:47.260Z,9.60
2023-02-20T00:20:20.761Z,5.60
2023-02-20T00:22:48.097Z,12.90
2023-02-20T00:25:19.347Z,6.60
2023-02-20T00:27:46.593Z,5.63
2023-02-20T00:30:20.099Z,12.43
2023-02-20T00:32:49.972Z,9.73
2023-02-20T00:35:18.447Z,7.73
2023-02-20T00:37:47.298Z,8.50
2023-02-20T00:40:15.462Z,8.60
2023-02-20T00:42:42.515Z,6.77
2023-02-20T00:45:10.549Z,7.57
2023-02-20T00:47:37.754Z,6.30
2023-02-20T00:50:06.730Z,8.70
2023-02-20T00:52:33.822Z,8.00
2023-02-20T00:55:00.901Z,12.93
2023-02-20T00:57:27.921Z,7.77
2023-02-20T00:59:55.111Z,5.30
2023-02-20T01:02:22.102Z,8.07
2023-02-20T01:04:49.483Z,9.80
2023-02-20T01:07:16.664Z,7.27
2023-02-20T01:09:43.837Z,4.63
2023-02-20T01:12:10.970Z,6.53
2023-02-20T01:14:38.250Z,5.70
2023-02-20T01:17:05.315Z,6.10
2023-02-20T01:19:32.431Z,8.20
2023-02-20T01:22:00.456Z,8.20
2023-02-20T01:24:27.471Z,10.80
2023-02-20T01:26:54.465Z,6.00
2023-02-20T01:29:21.530Z,8.00
2023-02-20T01:31:50.737Z,9.73
2023-02-20T01:34:18.868Z,9.23
2023-02-20T01:36:48.900Z,8.13
2023-02-20T01:39:19.470Z,7.50
2023-02-20T01:41:49.363Z,12.23
2023-02-20T01:44:22.803Z,5.20
2023-02-20T01:46:53.135Z,7.53
2023-02-20T01:49:27.019Z,6.03
2023-02-20T01:52:03.442Z,7.90
2023-02-20T01:54:31.509Z,5.93
2023-02-20T01:57:02.638Z,7.23
2023-02-20T01:59:33.428Z,10.13
2023-02-20T02:02:00.808Z,8.47
2023-02-20T02:04:29.309Z,12.67
2023-02-20T02:06:56.526Z,6.67
2023-02-20T02:09:47.786Z,5.83
2023-02-20T02:12:14.740Z,7.50
2023-02-20T02:14:41.710Z,7.73
2023-02-20T02:17:48.538Z,6.47
2023-02-20T02:26:28.750Z,6.13
2023-02-20T02:32:22.257Z,9.40
2023-02-20T02:43:19.218Z,7.20
2023-02-20T02:46:09.689Z,12.47
2023-02-20T02:48:43.581Z,7.73
2023-02-20T02:51:15.993Z,7.20
2023-02-20T02:53:43.004Z,8.90
2023-02-20T02:56:27.135Z,13.07
2023-02-20T02:58:55.304Z,9.80
2023-02-20T03:01:22.776Z,11.00
2023-02-20T03:03:51.766Z,10.43
2023-02-20T03:06:23.996Z,7.80
2023-02-20T03:08:57.987Z,13.03
2023-02-20T03:11:27.849Z,9.90
2023-02-20T03:14:19.866Z,8.00
2023-02-20T03:17:14.688Z,13.30
2023-02-20T03:19:46.608Z,11.07
2023-02-20T03:22:19.750Z,13.70
2023-02-20T03:24:58.525Z,10.20
2023-02-20T03:27:49.908Z,10.50
2023-02-20T03:30:42.653Z,8.60
2023-02-20T03:33:34.449Z,5.90
2023-02-20T03:36:24.753Z,10.40
2023-02-20T03:39:18.527Z,6.83
2023-02-20T03:42:08.072Z,10.83
2023-02-20T03:44:37.019Z,9.17
2023-02-20T03:47:07.672Z,8.97
2023-02-20T03:49:38.711Z,15.47
2023-02-20T03:52:06.324Z,7.33
2023-02-20T03:54:35.260Z,6.47
2023-02-20T03:57:09.261Z,8.67
2023-02-20T03:59:57.523Z,7.30
2023-02-20T04:02:34.212Z,9.10
2023-02-20T04:05:06.072Z,11.70
2023-02-20T04:07:42.512Z,15.40
2023-02-20T04:10:14.815Z,4.37
2023-02-20T04:12:45.623Z,9.63
2023-02-20T04:15:14.041Z,5.93
2023-02-20T04:17:49.934Z,7.33
2023-02-20T04:20:17.343Z,7.43
2023-02-20T04:22:48.980Z,9.00
2023-02-20T04:25:43.064Z,6.27
2023-02-20T04:28:10.818Z,7.43
2023-02-20T04:30:38.159Z,9.77
2023-02-20T04:33:05.508Z,5.27
2023-02-20T04:35:32.789Z,9.63
2023-02-20T04:37:59.811Z,8.87
2023-02-20T04:40:26.837Z,6.87
2023-02-20T04:42:53.829Z,8.03
2023-02-20T04:45:20.923Z,8.60
2023-02-20T04:47:47.976Z,8.63
2023-02-20T04:50:27.012Z,9.90
2023-02-20T04:52:54.682Z,10.73
2023-02-20T04:55:22.136Z,10.00
2023-02-20T04:57:49.675Z,8.17
2023-02-20T05:00:18.760Z,5.87
2023-02-20T05:02:45.833Z,9.13
2023-02-20T05:05:23.201Z,7.70
2023-02-20T05:08:00.439Z,11.00
2023-02-20T05:10:28.753Z,13.77
2023-02-20T05:12:56.568Z,10.07
2023-02-20T05:15:24.051Z,9.37
2023-02-20T05:17:51.347Z,11.57
2023-02-20T05:20:19.235Z,11.33
2023-02-20T05:22:47.364Z,10.10
2023-02-20T05:25:15.354Z,11.75
2023-02-20T05:27:42.733Z,8.27
2023-02-20T05:30:11.179Z,9.10
2023-02-20T05:32:38.235Z,7.27
2023-02-20T05:35:05.481Z,9.40
2023-02-20T05:37:33.747Z,8.47
2023-02-20T05:40:00.927Z,6.17
2023-02-20T05:42:27.924Z,8.80
2023-02-20T05:44:54.894Z,9.43
2023-02-20T05:47:21.878Z,9.03
2023-02-20T05:49:48.915Z,6.50
2023-02-20T05:52:16.047Z,6.00
2023-02-20T05:54:43.133Z,5.93
2023-02-20T05:57:12.634Z,8.57
2023-02-20T05:59:40.021Z,10.13
2023-02-20T06:02:07.042Z,9.10
2023-02-20T06:04:34.733Z,8.13
2023-02-20T06:07:01.868Z,8.80
2023-02-20T06:09:28.867Z,6.90
2023-02-20T06:11:56.932Z,7.73
2023-02-20T06:14:26.260Z,6.60
2023-02-20T06:16:53.428Z,7.33
2023-02-20T06:19:24.162Z,6.75
2023-02-20T06:21:53.656Z,9.83
2023-02-20T06:24:21.671Z,7.93
2023-02-20T06:26:49.084Z,9.05
2023-02-20T06:29:17.259Z,8.32
2023-02-20T06:31:44.703Z,8.20
2023-02-20T06:34:12.057Z,7.03
2023-02-20T06:36:41.044Z,8.10
2023-02-20T06:39:10.282Z,5.35
2023-02-20T06:41:37.523Z,5.37
2023-02-20T06:44:05.613Z,8.57
2023-02-20T06:46:32.767Z,5.38
2023-02-20T06:49:00.313Z,5.03
2023-02-20T06:51:30.927Z,4.93
2023-02-20T06:53:58.636Z,7.90
2023-02-20T06:56:28.838Z,6.40
2023-02-20T06:58:56.672Z,7.63
2023-02-20T07:01:28.616Z,5.13
2023-02-20T07:03:57.627Z,6.47
2023-02-20T07:06:25.873Z,6.93
2023-02-20T07:08:53.205Z,4.35
2023-02-20T07:11:22.018Z,4.47
2023-02-20T07:13:49.361Z,5.18
2023-02-20T07:16:16.860Z,4.95
2023-02-20T07:18:44.108Z,4.93
2023-02-20T07:21:11.165Z,5.43
2023-02-20T07:23:38.168Z,6.18
2023-02-20T07:26:05.249Z,5.60
2023-02-20T07:28:36.088Z,5.82
2023-02-20T07:31:03.194Z,5.93
2023-02-20T07:33:30.278Z,6.05
2023-02-20T07:35:57.241Z,6.35
2023-02-20T07:38:26.796Z,8.18
2023-02-20T07:40:54.131Z,6.05
2023-02-20T07:43:21.181Z,5.35
2023-02-20T07:45:49.353Z,5.07
2023-02-20T07:48:16.379Z,7.38
2023-02-20T07:50:43.452Z,6.05
2023-02-20T07:53:14.684Z,8.15
2023-02-20T07:55:41.716Z,5.97
2023-02-20T07:58:09.067Z,5.35
2023-02-20T08:00:36.349Z,5.18
2023-02-20T08:03:03.578Z,4.78
2023-02-20T08:05:40.074Z,5.25
2023-02-20T08:08:14.219Z,4.88
2023-02-20T08:10:41.237Z,4.80
2023-02-20T08:13:08.403Z,6.10
2023-02-20T08:15:35.829Z,14.48
2023-02-20T08:18:06.000Z,21.95
2023-02-20T08:20:33.180Z,11.15
2023-02-20T08:23:00.918Z,9.80
2023-02-20T08:25:27.995Z,10.23
2023-02-20T08:27:55.039Z,8.00
2023-02-20T08:30:25.782Z,7.93
2023-02-20T08:32:54.655Z,8.48
2023-02-20T08:35:24.809Z,7.65
2023-02-20T08:37:52.104Z,5.90
2023-02-20T08:40:19.343Z,4.97
2023-02-20T08:42:49.648Z,4.72
2023-02-20T08:45:16.799Z,4.80
2023-02-20T08:47:43.884Z,5.97
2023-02-20T08:50:10.898Z,4.90
2023-02-20T08:52:38.068Z,6.32
2023-02-20T08:55:05.512Z,5.15
2023-02-20T08:57:32.558Z,5.47
2023-02-20T08:59:59.582Z,5.45
2023-02-20T09:02:29.246Z,5.53
2023-02-20T09:04:57.634Z,6.05
2023-02-20T09:07:25.301Z,5.88
2023-02-20T09:09:52.487Z,5.75
2023-02-20T09:12:20.006Z,4.97
2023-02-20T09:14:47.624Z,5.27
2023-02-20T09:17:14.820Z,6.83
2023-02-20T09:19:41.948Z,4.68
2023-02-20T09:22:09.320Z,6.83
2023-02-20T09:24:36.552Z,4.93
2023-02-20T09:27:06.495Z,6.03
2023-02-20T09:29:33.663Z,7.03
2023-02-20T09:32:00.858Z,7.10
2023-02-20T09:34:27.976Z,6.43
2023-02-20T09:36:55.652Z,7.53
2023-02-20T09:39:22.865Z,8.00
2023-02-20T09:42:17.335Z,9.77
2023-02-20T09:45:21.146Z,8.70
2023-02-20T09:48:27.954Z,9.93
2023-02-20T09:51:06.712Z,9.93
2023-02-20T09:53:57.443Z,12.80
2023-02-20T09:56:30.552Z,11.50
2023-02-20T09:59:18.977Z,12.53
2023-02-20T10:02:01.769Z,14.33
2023-02-20T10:05:00.345Z,12.53
2023-02-20T10:07:32.808Z,13.10
2023-02-20T10:10:03.182Z,13.50
2023-02-20T10:12:41.904Z,13.87
2023-02-20T10:15:48.701Z,17.70
2023-02-20T10:18:55.490Z,18.80
2023-02-20T10:21:55.969Z,19.20
2023-02-20T10:25:02.750Z,17.40
2023-02-20T10:27:54.101Z,15.20
2023-02-20T10:30:29.515Z,16.87
2023-02-20T10:36:23.783Z,14.83
2023-02-20T10:38:56.050Z,16.10
2023-02-20T10:41:48.055Z,16.60
2023-02-20T10:44:54.795Z,16.63
2023-02-20T10:50:05.837Z,13.80
2023-02-20T10:52:42.266Z,15.77
2023-02-20T10:55:35.282Z,13.93
2023-02-20T10:58:26.716Z,15.13
2023-02-20T11:00:57.169Z,12.60
2023-02-20T11:03:40.169Z,24.87
2023-02-20T11:06:12.486Z,15.57
2023-02-20T11:08:39.855Z,15.40
2023-02-20T11:11:22.721Z,22.03
2023-02-20T11:13:49.874Z,18.20
2023-02-20T11:16:38.893Z,15.20
2023-02-20T11:19:15.533Z,13.87
2023-02-20T11:21:47.077Z,14.23
2023-02-20T11:24:40.175Z,15.77
2023-02-20T11:27:16.886Z,16.53
2023-02-20T11:30:16.469Z,17.77
2023-02-20T11:32:43.837Z,20.60
2023-02-20T11:35:33.519Z,17.87
2023-02-20T11:38:40.233Z,18.83
2023-02-20T11:44:24.266Z,24.77
2023-02-20T11:47:28.362Z,20.73
2023-02-20T11:50:33.907Z,24.77
2023-02-20T11:53:30.105Z,23.30
2023-02-20T11:58:42.803Z,24.07
2023-02-20T12:02:00.522Z,21.40
2023-02-20T12:04:28.113Z,21.87
2023-02-20T12:06:55.355Z,25.60
2023-02-20T12:09:26.332Z,21.10
2023-02-20T12:11:59.609Z,20.23
2023-02-20T12:14:26.700Z,20.93
2023-02-20T12:17:06.597Z,15.67
2023-02-20T12:20:11.258Z,21.90
2023-02-20T12:22:45.097Z,15.10
2023-02-20T12:25:52.594Z,25.03
2023-02-20T12:28:52.160Z,20.13
2023-02-20T12:31:58.967Z,18.80
2023-02-20T12:34:54.321Z,23.50
2023-02-20T12:38:01.145Z,17.13
2023-02-20T12:41:07.690Z,16.60
2023-02-20T12:43:47.969Z,13.38
2023-02-20T12:46:37.603Z,12.83
2023-02-20T12:49:44.394Z,14.30
2023-02-20T12:52:52.814Z,10.27
2023-02-20T12:55:49.768Z,12.93
2023-02-20T13:02:41.616Z,13.43
2023-02-20T13:05:13.912Z,16.77
2023-02-20T13:07:53.194Z,12.03
2023-02-20T13:11:17.095Z,11.63
2023-02-20T13:14:08.012Z,12.03
2023-02-20T13:16:59.818Z,12.33
2023-02-20T13:20:22.159Z,11.20
2023-02-20T13:23:29.813Z,15.87
2023-02-20T13:25:57.945Z,13.73
2023-02-20T13:28:45.885Z,15.63
2023-02-20T13:31:36.992Z,11.17
2023-02-20T13:34:28.959Z,12.67
2023-02-20T13:36:55.988Z,14.00
2023-02-20T13:39:41.365Z,11.37
2023-02-20T13:42:30.287Z,12.20
2023-02-20T13:45:56.802Z,13.93
2023-02-20T13:48:45.319Z,9.30
2023-02-20T13:51:32.758Z,10.80
2023-02-20T13:54:24.675Z,8.87
2023-02-20T13:56:59.596Z,10.73
2023-02-20T13:59:28.265Z,9.82
2023-02-20T14:02:21.292Z,8.50
2023-02-20T14:05:07.818Z,11.37
2023-02-20T14:07:46.383Z,8.87
2023-02-20T14:10:27.677Z,7.43
2023-02-20T14:13:16.953Z,8.27
2023-02-20T14:15:49.015Z,7.93
2023-02-20T14:18:19.742Z,6.90
2023-02-20T14:20:48.648Z,7.73
2023-02-20T14:23:35.951Z,7.33
2023-02-20T14:26:10.014Z,7.10
2023-02-20T14:28:46.112Z,8.63
2023-02-20T14:31:33.850Z,8.07
2023-02-20T14:34:09.246Z,6.03
2023-02-20T14:37:16.011Z,5.88
2023-02-20T14:40:07.666Z,7.57
2023-02-20T14:42:39.619Z,6.77
2023-02-20T14:45:13.829Z,5.40
2023-02-20T14:48:01.500Z,4.33
2023-02-20T14:50:34.605Z,6.43
2023-02-20T14:53:23.052Z,4.47
2023-02-20T14:55:50.481Z,5.20
2023-02-20T14:58:23.384Z,5.10
2023-02-20T15:00:53.128Z,8.53
2023-02-20T15:03:31.602Z,8.63
2023-02-20T15:06:07.338Z,6.10
2023-02-20T15:08:36.446Z,11.43
2023-02-20T15:11:12.018Z,9.40
2023-02-20T15:13:43.592Z,6.90
2023-02-20T15:16:32.373Z,9.67
2023-02-20T15:18:59.690Z,9.20
2023-02-20T15:21:39.334Z,8.73
2023-02-20T15:24:35.854Z,7.43
2023-02-20T15:27:27.342Z,9.93
2023-02-20T15:30:32.007Z,6.13
2023-02-20T15:32:59.319Z,10.73
2023-02-20T15:35:29.281Z,9.40
2023-02-20T15:38:39.759Z,7.73
2023-02-20T15:41:07.534Z,8.07
2023-02-20T15:43:46.712Z,10.03
2023-02-20T15:46:17.330Z,8.13
2023-02-20T15:48:44.577Z,7.60
2023-02-20T15:51:20.212Z,12.33
2023-02-20T15:53:47.988Z,11.13
2023-02-20T15:56:17.350Z,14.20
2023-02-20T15:58:46.139Z,8.20
2023-02-20T16:01:13.325Z,8.93
2023-02-20T16:03:53.818Z,9.70
2023-02-20T16:06:22.653Z,11.07
2023-02-20T16:08:50.882Z,8.27
2023-02-20T16:11:20.919Z,7.60
2023-02-20T16:13:53.516Z,6.33
2023-02-20T16:16:29.613Z,7.87
2023-02-20T16:18:56.852Z,8.43
2023-02-20T16:21:25.143Z,8.87
2023-02-20T16:23:53.112Z,24.87
2023-02-20T16:26:23.129Z,19.93
2023-02-20T16:28:59.041Z,11.70
2023-02-20T16:32:06.127Z,8.03
2023-02-20T16:34:35.323Z,8.20
2023-02-20T16:37:03.541Z,12.87
2023-02-20T16:39:30.665Z,13.73
2023-02-20T16:41:59.571Z,8.80
2023-02-20T16:44:46.905Z,13.33
2023-02-20T16:47:16.663Z,11.00
2023-02-20T16:49:43.843Z,16.10
2023-02-20T16:52:18.075Z,10.90
2023-02-20T16:54:47.563Z,14.00
2023-02-20T16:57:14.639Z,12.00
2023-02-20T16:59:41.887Z,15.17
2023-02-20T17:02:16.589Z,13.03
2023-02-20T17:04:44.081Z,12.77
2023-02-20T17:07:11.490Z,16.60
2023-02-20T17:09:44.360Z,18.53
2023-02-20T17:12:16.050Z,11.15
2023-02-20T17:14:43.509Z,15.37
2023-02-20T17:17:10.836Z,13.67
2023-02-20T17:19:40.035Z,10.93
2023-02-20T17:22:07.880Z,16.20
2023-02-20T17:24:35.834Z,15.67
2023-02-20T17:27:03.443Z,16.30
2023-02-20T17:29:30.548Z,17.93
2023-02-20T17:31:57.721Z,25.00
2023-02-20T17:34:24.907Z,23.37
2023-02-20T17:36:52.163Z,18.47
2023-02-20T17:39:23.516Z,12.90
2023-02-20T17:41:52.630Z,15.93
2023-02-20T17:44:22.809Z,11.47
2023-02-20T17:46:51.982Z,14.43
2023-02-20T17:49:19.943Z,15.60
2023-02-20T17:51:47.243Z,15.57
2023-02-20T17:54:15.009Z,20.47
2023-02-20T17:56:43.954Z,14.97
2023-02-20T17:59:11.467Z,15.90
2023-02-20T18:01:39.389Z,11.23
2023-02-20T18:04:06.580Z,18.77
2023-02-20T18:06:34.173Z,17.03
2023-02-20T18:09:02.109Z,22.97
2023-02-20T18:11:29.170Z,21.00
2023-02-20T18:13:57.014Z,20.20
2023-02-20T18:16:26.477Z,16.23
2023-02-20T18:18:54.069Z,19.77
2023-02-20T18:21:24.799Z,16.83
2023-02-20T18:23:51.961Z,17.90
2023-02-20T18:26:19.274Z,21.37
2023-02-20T18:28:46.396Z,21.20
2023-02-20T18:31:14.518Z,25.10
2023-02-20T18:33:41.712Z,20.40
2023-02-20T18:36:09.472Z,15.87
2023-02-20T18:38:36.882Z,15.07
2023-02-20T18:41:04.095Z,17.17
2023-02-20T18:43:31.517Z,23.23
2023-02-20T18:45:58.698Z,18.20
2023-02-20T18:48:25.854Z,27.00
2023-02-20T18:50:53.013Z,14.17
2023-02-20T18:53:20.037Z,20.90
2023-02-20T18:55:47.164Z,15.00
2023-02-20T18:58:14.258Z,19.73
2023-02-20T19:00:41.464Z,21.27
2023-02-20T19:03:08.873Z,18.60
2023-02-20T19:05:36.930Z,18.43
2023-02-20T19:08:05.599Z,23.20
2023-02-20T19:10:34.077Z,15.03
2023-02-20T19:13:01.189Z,25.80
2023-02-20T19:15:28.585Z,16.17
2023-02-20T19:17:55.756Z,20.60
2023-02-20T19:20:32.728Z,13.40
2023-02-20T19:23:02.397Z,20.43
2023-02-20T19:25:29.829Z,20.20
2023-02-20T19:27:57.186Z,19.53
2023-02-20T19:30:25.609Z,19.47
2023-02-20T19:32:53.172Z,18.73
2023-02-20T19:35:20.865Z,16.03
2023-02-20T19:37:48.073Z,17.60
2023-02-20T19:40:15.628Z,17.63
2023-02-20T19:42:43.324Z,26.23
2023-02-20T19:45:11.036Z,17.47
2023-02-20T19:47:38.390Z,19.67
2023-02-20T19:50:06.560Z,17.23
2023-02-20T19:52:34.072Z,25.67
2023-02-20T19:55:01.512Z,20.87
2023-02-20T19:57:28.836Z,28.20
2023-02-20T19:59:56.095Z,22.53
2023-02-20T20:02:33.878Z,22.80
2023-02-20T20:05:01.540Z,24.20
2023-02-20T20:07:28.999Z,23.27
2023-02-20T20:09:56.209Z,19.47
2023-02-20T20:12:43.136Z,17.90
2023-02-20T20:15:10.401Z,20.30
2023-02-20T20:17:37.654Z,29.40
2023-02-20T20:20:06.090Z,30.03
2023-02-20T20:22:33.053Z,25.47
2023-02-20T20:25:00.195Z,23.10
2023-02-20T20:27:27.805Z,29.03
2023-02-20T20:29:55.063Z,17.70
2023-02-20T20:32:22.580Z,26.77
2023-02-20T20:34:53.197Z,18.93
2023-02-20T20:37:23.756Z,24.40
2023-02-20T20:39:52.335Z,22.90
2023-02-20T20:42:23.843Z,14.73
2023-02-20T20:44:54.155Z,16.83
2023-02-20T20:47:22.100Z,16.73
2023-02-20T20:49:49.355Z,25.00
2023-02-20T20:52:17.794Z,26.17
2023-02-20T20:54:49.615Z,23.03
2023-02-20T20:57:18.752Z,18.13
2023-02-20T20:59:47.417Z,19.33
2023-02-20T21:02:15.907Z,24.80
2023-02-20T21:04:44.794Z,18.57
2023-02-20T21:07:11.816Z,18.13
2023-02-20T21:09:39.031Z,20.37
2023-02-20T21:12:06.429Z,19.63
2023-02-20T21:14:37.812Z,19.83
2023-02-20T21:17:07.056Z,24.97
2023-02-20T21:19:34.184Z,17.57
2023-02-20T21:22:01.683Z,22.03
2023-02-20T21:24:28.872Z,22.43
2023-02-20T21:26:55.948Z,26.70
2023-02-20T21:29:23.036Z,20.80
2023-02-20T21:31:50.104Z,15.73
2023-02-20T21:34:17.123Z,21.80
2023-02-20T21:36:44.320Z,23.47
2023-02-20T21:39:11.391Z,16.83
2023-02-20T21:41:59.137Z,24.57
2023-02-20T21:44:27.224Z,17.70
2023-02-20T21:47:02.831Z,19.00
2023-02-20T21:49:32.417Z,20.00
2023-02-20T21:51:59.794Z,17.43
2023-02-20T21:54:30.701Z,19.30
2023-02-20T21:57:00.380Z,14.83
2023-02-20T21:59:28.442Z,20.00
2023-02-20T22:01:56.129Z,12.17
2023-02-20T22:04:24.887Z,21.23
2023-02-20T22:07:12.011Z,18.30
2023-02-20T22:09:59.001Z,21.63
2023-02-20T22:12:45.812Z,17.40
2023-02-20T22:15:34.154Z,21.40
2023-02-20T22:18:21.137Z,17.43
2023-02-20T22:21:08.116Z,17.57
2023-02-20T22:23:55.010Z,24.57
2023-02-20T22:26:42.135Z,24.47
2023-02-20T22:29:29.134Z,19.70
2023-02-20T22:32:16.227Z,18.83
2023-02-20T22:35:11.630Z,20.20
2023-02-20T22:37:59.642Z,13.75
2023-02-20T22:40:46.548Z,19.43
2023-02-20T22:43:33.602Z,22.93
2023-02-20T22:46:20.774Z,19.90
2023-02-20T22:49:07.714Z,26.10
2023-02-20T22:51:54.601Z,26.03
2023-02-20T22:54:44.792Z,16.57
2023-02-20T22:57:33.146Z,18.87
2023-02-20T23:00:20.109Z,18.40
2023-02-20T23:03:07.080Z,18.43
2023-02-20T23:05:54.033Z,20.03
2023-02-20T23:08:41.150Z,16.73
2023-02-20T23:11:28.091Z,19.13
2023-02-20T23:14:14.968Z,18.00
2023-02-20T23:17:01.876Z,18.00
2023-02-20T23:19:48.753Z,22.87
2023-02-20T23:22:35.684Z,12.00
2023-02-20T23:25:22.616Z,21.03
2023-02-20T23:28:09.947Z,18.90
2023-02-20T23:30:56.909Z,18.60
2023-02-20T23:33:43.791Z,16.50
2023-02-20T23:36:30.693Z,16.43
2023-02-20T23:39:17.543Z,22.13
2023-02-20T23:42:05.548Z,16.57
2023-02-20T23:44:52.756Z,19.10
2023-02-20T23:47:39.704Z,15.13
2023-02-20T23:50:27.285Z,12.70
2023-02-20T23:53:14.427Z,24.17
2023-02-20T23:56:01.543Z,18.43
2023-02-20T23:58:50.863Z,12.50
